Terminal Aerodrome Forecast
Issued by NWS

Home | Current Version | Previous Version | Text Only | Print | Product List | Glossary On
Versions: 1 2 3 4 5 6 7 8 9 10 11 12 13 14 15 16 17 18 19 20 21
000
FTUS45 KABQ 051100
TAFTCC
TAF
KTCC 051122Z 0512/0612 VRB04KT P6SM FEW025
     FM051600 25008KT P6SM FEW060
     FM051800 22010G16KT P6SM SKC
     FM060200 23008KT P6SM SKC=

USA.gov is the U.S. government's official web portal to all federal, state and local government web resources and services.